Sunset Island, Florida
Current Conditions -  °F | °C
As of 9:53 PM on Wednesday 26 Nov 2014 (Local Time) from KMIA Reporting Station
Broken Clouds Broken Clouds  
Wind Chill: 61°   Ceiling: 20000
Heat Index: 61°   Visibility: 10mi
Dew Point: 45°   Wind: 8mph
Humidity: 56%   Direction: 330°NNW
Pressure: 30.18"   Gusts: NA
Location:  25.8181°N, 80.1301°W
Report Text: KMIA 270253Z 33007KT 10SM BKN200 16/07 A3018 RMK AO2 SLP219 60000 T01610072 51010
Loading
Personal Weather Stations






























Interactive Weather Map New forecast layout! Learn more

10-Day Weather Forecast

Advertisements
Track Severe Weather on mobile